Шереметьево

Карта отелей и гостиниц, располагающихся рядом с аэропортом Шереметьево :

Шереметьево
Москва
Московская область 55° 58' 20.64" N, 37° 24' 46.98" E
Код аэродрома ИКАО
UUEE
Код аэродрома RU
УУЕЕ
Координаты
N55.97240° E037.41305°
Превышение над уровнем моря
192
Основная полоса
06R/24L
Курс магнитный
064,2/244,2
Длина основной ВПП
3700
Ширина основной ВПП
60
Покрытие основной ВПП
Твёрдое
Освещение ВПП
Постоянное
Тип: 
Аэродром
Класс аэродрома: 
Международный
Принадлежность: 
ГА
Статус: 
Действующий
Сайт: 
http://www.svo.aero
E-mail аэродрома: 
caon@sheremetyevo-airport.ru
Страна: 
Россия
Регион: 
Московская область
Город: 
Москва
Дополнительная информация: 
Оператор: АО «Международный аэропорт Шереметьево». Крупнейший российский аэропорт по обслуживанию регулярных международных рейсов.
Погода: 

Авиационная погода в Москва - Шереметьево

Погода METAR: 
UUEE 281300Z 22005MPS 9999 BKN023 03/M00 Q1004 R88/290045 NOSIG
Время наблюдения
2021-11-28T13:00:00Z
Температура C
3.0
Точка росы
0.0
Направление ветра
220
Скорость ветра (узлы)
10
Метео видимость
6.21
Явления погоды
Условия полета
MVFR
Аэропорт подробнее: 

Найти трансфер

С помощью этой формы Вы можете найти трансфер из аэропорта Шереметьево в город, аэропорт или вокзал:

Карта места

Javascript is required to view this map.

Погода в аэропортах:

Авиационная погода в Куусамо

Регион: 
Погода METAR: 
EFKS 281320Z AUTO VRB01KT 9999 -SHSN SCT003 M19/M21 Q1010
Время наблюдения
2021-11-28T13:20:00Z
Температура C
-19.0
Точка росы
-21.0
Направление ветра
0
Скорость ветра (узлы)
1
Метео видимость
6.21
Явления погоды
-SHSN
Условия полета
VFR

Авиационная погода в Ужгороде

Регион: 
Погода METAR: 
UKLU 261930Z 10004MPS 080V150 6000 -RA OVC016 06/06 Q0993 TEMPO 2100 -RA BR BKN005 BKN015
Время наблюдения
2021-11-26T19:30:00Z
Температура C
6.0
Точка росы
6.0
Направление ветра
100
Скорость ветра (узлы)
8
Метео видимость
3.73
Явления погоды
-RA
Условия полета
MVFR
Аэропорт подробнее: 

Авиационная погода в Москва - Внуково

Погода METAR: 
UUWW 281300Z 22006MPS 9999 -RA BKN007 OVC022 02/01 Q1005 R24/290050 TEMPO BKN004
Время наблюдения
2021-11-28T13:00:00Z
Температура C
2.0
Точка росы
1.0
Направление ветра
220
Скорость ветра (узлы)
12
Метео видимость
6.21
Явления погоды
-RA
Условия полета
IFR
Аэропорт подробнее: 

Авиационная погода в Емельяново

Регион: 
Погода METAR: 
UNKL 281300Z 25007MPS 6000 -SHSN SCT041CB M05/M08 Q1026 R29/810245 NOSIG RMK QFE743
Время наблюдения
2021-11-28T13:00:00Z
Температура C
-5.0
Точка росы
-8.0
Направление ветра
250
Скорость ветра (узлы)
14
Метео видимость
3.73
Явления погоды
-SHSN
Условия полета
MVFR
Аэропорт подробнее: